createdAt,value
2022-09-01T00:01:21.965Z,98785.88
2022-09-01T00:03:49.239Z,98791.59
2022-09-01T00:06:16.715Z,98802.09
2022-09-01T00:08:43.486Z,98776.06
2022-09-01T00:11:10.132Z,98751.88
2022-09-01T00:13:36.731Z,98765.53
2022-09-01T00:16:03.720Z,98771.50
2022-09-01T00:18:31.036Z,98740.34
2022-09-01T00:20:58.443Z,98783.94
2022-09-01T00:23:27.518Z,98815.66
2022-09-01T00:25:54.532Z,98791.94
2022-09-01T00:28:21.520Z,98838.59
2022-09-01T00:30:54.177Z,98834.16
2022-09-01T00:33:21.740Z,98752.94
2022-09-01T00:35:48.470Z,98785.41
2022-09-01T00:38:15.033Z,98783.66
2022-09-01T00:40:41.852Z,98841.41
2022-09-01T00:43:18.453Z,98812.28
2022-09-01T00:45:45.231Z,98775.03
2022-09-01T00:48:12.274Z,98776.59
2022-09-01T00:50:40.316Z,98688.41
2022-09-01T00:53:08.137Z,98766.63
2022-09-01T00:55:37.529Z,98782.38
2022-09-01T00:58:06.547Z,98799.38
2022-09-01T01:00:50.810Z,98767.41
2022-09-01T01:03:17.581Z,98774.81
2022-09-01T01:05:51.527Z,98796.88
2022-09-01T01:08:18.815Z,98782.00
2022-09-01T01:10:45.854Z,98773.50
2022-09-01T01:13:16.247Z,98783.78
2022-09-01T01:15:44.494Z,98821.44
2022-09-01T01:18:12.450Z,98792.88
2022-09-01T01:20:40.213Z,98826.50
2022-09-01T01:23:21.791Z,98767.41
2022-09-01T01:25:50.351Z,98825.09
2022-09-01T01:28:24.186Z,98830.38
2022-09-01T01:30:55.752Z,98764.72
2022-09-01T01:33:26.667Z,98792.94
2022-09-01T01:35:54.330Z,98820.47
2022-09-01T01:38:21.341Z,98826.34
2022-09-01T01:40:50.993Z,98807.88
2022-09-01T01:43:18.070Z,98763.28
2022-09-01T01:45:44.734Z,98768.69
2022-09-01T01:48:11.553Z,98792.50
2022-09-01T01:50:39.472Z,98750.91
2022-09-01T01:53:11.095Z,98818.59
2022-09-01T01:55:40.709Z,98766.66
2022-09-01T01:58:07.492Z,98787.97
2022-09-01T02:00:34.389Z,98783.28
2022-09-01T02:03:02.193Z,98790.97
2022-09-01T02:05:32.623Z,98823.00
2022-09-01T02:08:02.725Z,98785.63
2022-09-01T02:10:33.356Z,98710.81
2022-09-01T02:13:02.239Z,98816.56
2022-09-01T02:15:29.228Z,98771.56
2022-09-01T02:17:55.954Z,98737.91
2022-09-01T02:20:22.579Z,98774.31
2022-09-01T02:22:49.759Z,98730.53
2022-09-01T02:25:16.342Z,98771.31
2022-09-01T02:27:48.120Z,98803.72
2022-09-01T02:30:14.772Z,98748.59
2022-09-01T02:32:41.755Z,98758.84
2022-09-01T02:35:09.779Z,98772.06
2022-09-01T02:37:38.586Z,98778.03
2022-09-01T02:40:08.355Z,98751.06
2022-09-01T02:42:37.498Z,98776.38
2022-09-01T02:45:05.453Z,98744.22
2022-09-01T02:47:32.093Z,98752.50
2022-09-01T02:49:58.649Z,98811.78
2022-09-01T02:52:25.600Z,98780.81
2022-09-01T02:54:52.301Z,98757.09
2022-09-01T02:57:18.963Z,98728.88
2022-09-01T02:59:45.579Z,98692.81
2022-09-01T03:02:12.325Z,98736.63
2022-09-01T03:04:38.964Z,98794.34
2022-09-01T03:07:07.202Z,98756.88
2022-09-01T03:09:33.802Z,98753.25
2022-09-01T03:12:01.145Z,98773.19
2022-09-01T03:14:27.878Z,98739.28
2022-09-01T03:16:54.663Z,98741.88
2022-09-01T03:19:21.327Z,98791.69
2022-09-01T03:21:48.099Z,98764.75
2022-09-01T03:24:18.737Z,98780.50
2022-09-01T03:26:49.775Z,98819.22
2022-09-01T03:29:18.642Z,98802.91
2022-09-01T03:31:45.577Z,98758.19
2022-09-01T03:34:12.523Z,98817.25
2022-09-01T03:36:45.204Z,98754.44
2022-09-01T03:39:16.537Z,98768.56
2022-09-01T03:41:43.814Z,98783.31
2022-09-01T03:44:11.869Z,98804.91
2022-09-01T03:46:38.538Z,98764.38
2022-09-01T03:49:05.982Z,98795.34
2022-09-01T03:51:33.197Z,98806.00
2022-09-01T03:54:01.242Z,98784.53
2022-09-01T03:56:29.367Z,98747.38
2022-09-01T03:58:58.402Z,98819.38
2022-09-01T04:01:27.000Z,98720.78
2022-09-01T04:03:54.432Z,98748.03
2022-09-01T04:06:24.932Z,98733.53
2022-09-01T04:08:52.972Z,98799.63
2022-09-01T04:11:21.260Z,98787.75
2022-09-01T04:13:49.117Z,98776.94
2022-09-01T04:16:20.864Z,98821.69
2022-09-01T04:18:48.082Z,98788.31
2022-09-01T04:21:14.690Z,98765.63
2022-09-01T04:23:41.340Z,98799.09
2022-09-01T04:26:12.571Z,98816.94
2022-09-01T04:28:42.388Z,98781.38
2022-09-01T04:31:11.427Z,98812.53
2022-09-01T04:33:38.864Z,98809.50
2022-09-01T04:36:16.456Z,98795.81
2022-09-01T04:38:43.168Z,98798.66
2022-09-01T04:41:09.891Z,98741.38
2022-09-01T04:43:36.623Z,98749.69
2022-09-01T04:46:04.373Z,98779.13
2022-09-01T04:48:31.195Z,98763.19
2022-09-01T04:50:58.108Z,98781.31
2022-09-01T04:53:27.643Z,98774.28
2022-09-01T04:55:55.534Z,98818.28
2022-09-01T04:58:24.393Z,98829.22
2022-09-01T05:00:51.230Z,98787.00
2022-09-01T05:03:19.223Z,98824.00
2022-09-01T05:05:53.791Z,98774.69
2022-09-01T05:08:23.364Z,98784.16
2022-09-01T05:10:54.005Z,98820.06
2022-09-01T05:13:31.645Z,98748.31
2022-09-01T05:16:05.216Z,98826.97
2022-09-01T05:18:32.868Z,98795.44
2022-09-01T05:21:06.168Z,98832.06
2022-09-01T05:23:32.814Z,98777.44
2022-09-01T05:25:59.874Z,98764.28
2022-09-01T05:28:26.753Z,98781.84
2022-09-01T05:30:53.327Z,98797.09
2022-09-01T05:33:21.954Z,98792.03
2022-09-01T05:35:57.642Z,98846.19
2022-09-01T05:38:24.811Z,98747.44
2022-09-01T05:40:59.891Z,98786.97
2022-09-01T05:43:26.750Z,98808.00
2022-09-01T05:46:05.972Z,98805.03
2022-09-01T05:48:33.443Z,98853.91
2022-09-01T05:51:00.081Z,98779.06
2022-09-01T05:53:27.777Z,98831.97
2022-09-01T05:55:54.689Z,98664.41
2022-09-01T05:58:21.734Z,98790.09
2022-09-01T06:00:48.537Z,98782.56
2022-09-01T06:03:16.479Z,98783.44
2022-09-01T06:05:45.418Z,98798.16
2022-09-01T06:08:12.319Z,98819.13
2022-09-01T06:10:40.189Z,98823.69
2022-09-01T06:13:08.325Z,98783.34
2022-09-01T06:15:38.284Z,98811.84
2022-09-01T06:18:07.222Z,98776.00
2022-09-01T06:20:40.189Z,98833.63
2022-09-01T06:23:07.289Z,98778.91
2022-09-01T06:25:37.052Z,98824.91
2022-09-01T06:28:04.372Z,98762.41
2022-09-01T06:30:31.896Z,98788.56
2022-09-01T06:33:03.803Z,98803.13
2022-09-01T06:35:31.741Z,98790.63
2022-09-01T06:37:59.606Z,98798.03
2022-09-01T06:40:36.183Z,98835.56
2022-09-01T06:43:03.219Z,98812.28
2022-09-01T06:45:30.003Z,98810.97
2022-09-01T06:48:00.065Z,98783.66
2022-09-01T06:56:05.060Z,98859.28
2022-09-01T06:58:32.420Z,98783.88
2022-09-01T07:00:59.270Z,98806.81
2022-09-01T07:03:26.672Z,98791.88
2022-09-01T07:06:59.095Z,98851.78
2022-09-01T07:09:20.188Z,98831.69
2022-09-01T07:12:31.954Z,98799.34
2022-09-01T07:17:50.905Z,98795.06
2022-09-01T07:20:23.573Z,98798.75
2022-09-01T07:23:07.396Z,98817.94
2022-09-01T07:28:37.423Z,98795.31
2022-09-01T07:33:54.563Z,98867.06
2022-09-01T07:36:29.015Z,98800.44
2022-09-01T07:47:57.163Z,98820.69
2022-09-01T07:50:39.816Z,98820.50
2022-09-01T07:53:09.572Z,98861.81
2022-09-01T07:55:39.984Z,98843.19
2022-09-01T07:58:06.927Z,98878.97
2022-09-01T08:00:33.943Z,98804.94
2022-09-01T08:03:05.655Z,98796.56
2022-09-01T08:05:34.017Z,98814.97
2022-09-01T08:08:01.395Z,98827.66
2022-09-01T08:10:32.356Z,98818.00
2022-09-01T08:12:59.390Z,98861.09
2022-09-01T08:16:06.967Z,98809.38
2022-09-01T08:18:18.492Z,98809.53
2022-09-01T08:20:46.070Z,98871.22
2022-09-01T08:23:30.962Z,98842.88
2022-09-01T08:25:58.446Z,98859.25
2022-09-01T08:28:26.831Z,98822.53
2022-09-01T08:30:54.899Z,98818.97
2022-09-01T08:33:23.423Z,98815.91
2022-09-01T08:35:50.224Z,98812.66
2022-09-01T08:38:18.796Z,98871.63
2022-09-01T08:40:56.207Z,98841.00
2022-09-01T08:43:34.128Z,98873.84
2022-09-01T08:46:15.723Z,98811.22
2022-09-01T08:52:30.820Z,98787.81
2022-09-01T08:55:22.033Z,98868.91
2022-09-01T08:57:49.016Z,98812.81
2022-09-01T09:00:28.417Z,98826.81
2022-09-01T09:03:18.487Z,98859.44
2022-09-01T09:06:03.492Z,98861.53
2022-09-01T09:08:49.020Z,98864.81
2022-09-01T09:11:24.792Z,98868.56
2022-09-01T09:14:28.736Z,98865.56
2022-09-01T09:16:57.232Z,98866.75
2022-09-01T09:19:29.730Z,98865.72
2022-09-01T09:21:59.257Z,98862.91
2022-09-01T09:24:29.190Z,98816.69
2022-09-01T09:27:06.025Z,98819.50
2022-09-01T09:29:33.702Z,98802.53
2022-09-01T09:32:39.529Z,98784.47
2022-09-01T09:34:56.327Z,98795.66
2022-09-01T09:37:23.249Z,98847.44
2022-09-01T09:40:10.061Z,98846.88
2022-09-01T09:42:43.466Z,98828.09
2022-09-01T09:45:24.032Z,98796.66
2022-09-01T09:47:52.081Z,98841.97
2022-09-01T09:50:29.446Z,98840.88
2022-09-01T09:53:17.621Z,98837.84
2022-09-01T09:56:11.514Z,98784.31
2022-09-01T09:58:40.997Z,98837.41
2022-09-01T10:01:07.604Z,98835.00
2022-09-01T10:03:43.948Z,98835.28
2022-09-01T10:06:33.857Z,98815.22
2022-09-01T10:09:14.474Z,98790.78
2022-09-01T10:11:44.022Z,98832.84
2022-09-01T10:14:52.132Z,98832.97
2022-09-01T10:17:31.599Z,98785.53
2022-09-01T10:20:04.472Z,98728.06
2022-09-01T10:22:32.861Z,98825.47
2022-09-01T10:25:00.965Z,98825.53
2022-09-01T10:27:33.464Z,98807.59
2022-09-01T10:30:19.129Z,98785.19
2022-09-01T10:33:06.853Z,98813.88
2022-09-01T10:35:43.796Z,98748.78
2022-09-01T10:38:20.727Z,98777.88
2022-09-01T10:40:52.854Z,98820.44
2022-09-01T10:43:44.328Z,98811.34
2022-09-01T10:46:41.859Z,98811.53
2022-09-01T10:49:25.233Z,98745.72
2022-09-01T10:51:57.005Z,98752.78
2022-09-01T10:54:40.326Z,98814.06
2022-09-01T10:57:52.578Z,98806.94
2022-09-01T11:00:35.118Z,98809.66
2022-09-01T11:06:11.355Z,98814.38
2022-09-01T11:08:58.253Z,98819.81
2022-09-01T11:11:38.946Z,98773.44
2022-09-01T11:14:20.869Z,98811.13
2022-09-01T11:17:24.061Z,98815.44
2022-09-01T11:19:55.713Z,98809.97
2022-09-01T11:22:32.354Z,98762.97
2022-09-01T11:25:38.734Z,98783.84
2022-09-01T11:28:10.951Z,98804.34
2022-09-01T11:30:54.404Z,98807.59
2022-09-01T11:33:46.482Z,98807.28
2022-09-01T11:36:26.140Z,98756.28
2022-09-01T11:38:57.312Z,98811.44
2022-09-01T11:41:34.302Z,98810.75
2022-09-01T11:44:03.481Z,98758.13
2022-09-01T11:46:35.512Z,98795.19
2022-09-01T11:49:08.977Z,98777.88
2022-09-01T11:51:47.593Z,98732.34
2022-09-01T11:54:15.943Z,98788.59
2022-09-01T11:56:42.567Z,98752.41
2022-09-01T11:59:09.190Z,98755.75
2022-09-01T12:01:38.401Z,98731.97
2022-09-01T12:04:20.206Z,98786.69
2022-09-01T12:06:57.520Z,98725.28
2022-09-01T12:09:34.109Z,98770.38
2022-09-01T12:12:00.999Z,98729.88
2022-09-01T12:14:35.229Z,98752.84
2022-09-01T12:17:20.480Z,98720.28
2022-09-01T12:19:47.150Z,98683.69
2022-09-01T12:22:19.283Z,98760.28
2022-09-01T12:24:49.135Z,98703.22
2022-09-01T12:27:15.798Z,98707.53
2022-09-01T12:29:43.647Z,98719.84
2022-09-01T12:32:11.741Z,98700.34
2022-09-01T12:35:05.600Z,98754.09
2022-09-01T12:37:36.234Z,98686.63
2022-09-01T12:40:02.968Z,98706.38
2022-09-01T12:42:40.960Z,98751.94
2022-09-01T12:45:10.187Z,98727.91
2022-09-01T12:47:36.752Z,98736.28
2022-09-01T12:50:08.652Z,98761.06
2022-09-01T12:52:44.929Z,98748.75
2022-09-01T12:58:10.638Z,98722.84
2022-09-01T13:00:55.000Z,98754.38
2022-09-01T13:03:22.296Z,98752.88
2022-09-01T13:06:03.986Z,98750.69
2022-09-01T13:08:36.034Z,98685.19
2022-09-01T13:11:11.380Z,98717.00
2022-09-01T13:13:38.381Z,98713.03
2022-09-01T13:16:06.020Z,98691.66
2022-09-01T13:18:32.976Z,98686.16
2022-09-01T13:21:00.694Z,98713.50
2022-09-01T13:23:27.389Z,98673.81
2022-09-01T13:25:54.028Z,98634.56
2022-09-01T13:28:21.122Z,98721.75
2022-09-01T13:31:28.699Z,98730.50
2022-09-01T13:36:45.417Z,98604.38
2022-09-01T13:39:15.459Z,98666.88
2022-09-01T13:41:42.379Z,98676.53
2022-09-01T13:44:09.381Z,98636.88
2022-09-01T13:46:59.105Z,98649.19
2022-09-01T13:52:09.513Z,98692.13
2022-09-01T13:54:36.154Z,98731.69
2022-09-01T13:57:03.023Z,98675.97
2022-09-01T13:59:29.821Z,98697.59
2022-09-01T14:01:56.734Z,98717.19
2022-09-01T14:04:23.444Z,98651.75
2022-09-01T14:06:50.118Z,98730.81
2022-09-01T14:09:17.764Z,98614.56
2022-09-01T14:11:44.816Z,98644.09
2022-09-01T14:14:11.816Z,98653.13
2022-09-01T14:16:38.574Z,98683.19
2022-09-01T14:19:05.817Z,98631.44
2022-09-01T14:21:32.685Z,98571.41
2022-09-01T14:23:59.520Z,98597.59
2022-09-01T14:26:28.040Z,98656.47
2022-09-01T14:28:54.806Z,98678.16
2022-09-01T14:31:22.093Z,98641.34
2022-09-01T14:33:49.051Z,98706.75
2022-09-01T14:36:25.184Z,98707.22
2022-09-01T14:38:54.676Z,98656.00
2022-09-01T14:41:23.785Z,98687.34
2022-09-01T14:43:55.994Z,98703.16
2022-09-01T14:46:24.218Z,98659.03
2022-09-01T14:48:50.836Z,98640.94
2022-09-01T14:54:16.373Z,98660.84
2022-09-01T14:57:27.309Z,98678.13
2022-09-01T14:59:30.002Z,98687.34
2022-09-01T15:01:56.930Z,98647.00
2022-09-01T15:04:23.674Z,98626.31
2022-09-01T15:06:50.751Z,98616.28
2022-09-01T15:09:19.215Z,98619.72
2022-09-01T15:11:46.947Z,98604.78
2022-09-01T15:14:13.942Z,98558.97
2022-09-01T15:16:41.309Z,98674.31
2022-09-01T15:19:10.080Z,98672.06
2022-09-01T15:21:38.276Z,98620.88
2022-09-01T15:24:06.718Z,98625.75
2022-09-01T15:26:33.628Z,98644.31
2022-09-01T15:29:00.835Z,98662.97
2022-09-01T15:31:32.854Z,98529.03
2022-09-01T15:34:02.191Z,98661.91
2022-09-01T15:36:31.839Z,98606.59
2022-09-01T15:38:58.979Z,98662.47
2022-09-01T15:41:28.194Z,98667.84
2022-09-01T15:43:56.183Z,98666.97
2022-09-01T15:46:23.580Z,98646.78
2022-09-01T15:48:50.271Z,98597.38
2022-09-01T15:51:22.906Z,98672.97
2022-09-01T15:53:51.240Z,98655.16
2022-09-01T15:56:18.807Z,98662.19
2022-09-01T15:59:01.087Z,98655.00
2022-09-01T16:01:30.931Z,98666.19
2022-09-01T16:03:58.082Z,98608.25
2022-09-01T16:06:25.323Z,98665.47
2022-09-01T16:08:51.919Z,98612.31
2022-09-01T16:11:18.603Z,98596.13
2022-09-01T16:13:45.218Z,98597.34
2022-09-01T16:16:18.932Z,98655.16
2022-09-01T16:19:15.172Z,98638.63
2022-09-01T16:22:05.026Z,98653.22
2022-09-01T16:24:38.795Z,98602.31
2022-09-01T16:27:08.022Z,98604.56
2022-09-01T16:29:48.409Z,98654.25
2022-09-01T16:32:15.977Z,98639.19
2022-09-01T16:34:43.718Z,98660.25
2022-09-01T16:37:41.313Z,98655.69
2022-09-01T16:40:30.175Z,98656.59
2022-09-01T16:43:34.709Z,98655.00
2022-09-01T16:46:18.176Z,98637.44
2022-09-01T16:49:46.669Z,98656.41
2022-09-01T16:52:20.616Z,98662.00
2022-09-01T16:55:16.430Z,98654.50
2022-09-01T16:57:56.099Z,98654.22
2022-09-01T17:00:37.946Z,98588.22
2022-09-01T17:03:17.263Z,98636.84
2022-09-01T17:05:55.848Z,98657.38
2022-09-01T17:08:56.482Z,98640.47
2022-09-01T17:11:33.443Z,98629.88
2022-09-01T17:14:01.626Z,98568.44
2022-09-01T17:16:36.029Z,98595.28
2022-09-01T17:19:09.593Z,98606.66
2022-09-01T17:22:05.082Z,98633.41
2022-09-01T17:24:42.928Z,98657.56
2022-09-01T17:27:18.726Z,98633.88
2022-09-01T17:29:51.068Z,98646.44
2022-09-01T17:32:48.180Z,98660.94
2022-09-01T17:35:33.354Z,98666.19
2022-09-01T17:38:15.391Z,98673.28
2022-09-01T17:41:10.565Z,98599.94
2022-09-01T17:43:46.583Z,98675.28
2022-09-01T17:46:30.022Z,98669.31
2022-09-01T17:49:09.481Z,98672.81
2022-09-01T17:52:03.580Z,98672.94
2022-09-01T17:54:36.103Z,98661.56
2022-09-01T17:57:32.190Z,98675.16
2022-09-01T18:00:08.024Z,98613.63
2022-09-01T18:02:52.245Z,98670.84
2022-09-01T18:05:24.774Z,98663.72
2022-09-01T18:08:16.504Z,98609.38
2022-09-01T18:11:05.977Z,98656.72
2022-09-01T18:13:52.959Z,98619.94
2022-09-01T18:16:25.452Z,98664.94
2022-09-01T18:18:53.094Z,98662.25
2022-09-01T18:21:32.941Z,98666.44
2022-09-01T18:24:28.676Z,98666.69
2022-09-01T18:26:55.336Z,98622.91
2022-09-01T18:29:22.174Z,98652.53
2022-09-01T18:31:55.290Z,98678.56
2022-09-01T18:34:38.366Z,98682.22
2022-09-01T18:37:20.122Z,98678.13
2022-09-01T18:39:46.673Z,98678.88
2022-09-01T18:42:37.408Z,98616.06
2022-09-01T18:45:22.801Z,98688.38
2022-09-01T18:48:07.170Z,98627.22
2022-09-01T18:50:46.161Z,98688.81
2022-09-01T18:53:15.719Z,98690.72
2022-09-01T18:55:50.855Z,98691.75
2022-09-01T18:58:41.673Z,98674.84
2022-09-01T19:01:12.851Z,98687.47
2022-09-01T19:03:48.609Z,98694.31
2022-09-01T19:06:34.686Z,98638.03
2022-09-01T19:09:01.313Z,98695.09
2022-09-01T19:11:47.654Z,98690.19
2022-09-01T19:14:29.337Z,98688.00
2022-09-01T19:17:04.662Z,98692.94
2022-09-01T19:19:39.558Z,98628.81
2022-09-01T19:22:06.608Z,98697.72
2022-09-01T19:24:43.504Z,98700.28
2022-09-01T19:27:19.737Z,98703.28
2022-09-01T19:29:50.959Z,98692.25
2022-09-01T19:32:20.662Z,98701.31
2022-09-01T19:34:55.584Z,98706.91
2022-09-01T19:37:23.406Z,98707.50
2022-09-01T19:39:53.962Z,98641.63
2022-09-01T19:43:03.021Z,98667.00
2022-09-01T19:45:55.067Z,98716.00
2022-09-01T19:48:35.178Z,98717.56
2022-09-01T19:51:24.166Z,98694.41
2022-09-01T19:54:20.089Z,98665.38
2022-09-01T19:56:54.645Z,98717.91
2022-09-01T19:59:40.699Z,98640.38
2022-09-01T20:02:24.605Z,98665.88
2022-09-01T20:05:07.084Z,98665.97
2022-09-01T20:08:16.816Z,98723.66
2022-09-01T20:11:03.686Z,98719.56
2022-09-01T20:14:07.630Z,98721.03
2022-09-01T20:16:38.239Z,98617.63
2022-09-01T20:19:11.830Z,98653.50
2022-09-01T20:21:44.725Z,98693.03
2022-09-01T20:24:36.881Z,98717.75
2022-09-01T20:27:38.616Z,98723.47
2022-09-01T20:30:12.569Z,98665.31
2022-09-01T20:33:24.231Z,98721.25
2022-09-01T20:36:18.992Z,98721.25
2022-09-01T20:39:02.932Z,98720.03
2022-09-01T20:41:48.143Z,98657.19
2022-09-01T20:44:35.590Z,98715.97
2022-09-01T20:47:05.033Z,98555.03
2022-09-01T20:49:33.632Z,98677.09
2022-09-01T20:52:05.492Z,98704.22
2022-09-01T20:54:41.300Z,98717.31
2022-09-01T20:57:30.058Z,98718.88
2022-09-01T21:00:02.979Z,98706.47
2022-09-01T21:02:44.791Z,98717.50
2022-09-01T21:05:26.651Z,98724.28
2022-09-01T21:08:17.722Z,98728.22
2022-09-01T21:10:47.392Z,98723.13
2022-09-01T21:13:24.640Z,98638.22
2022-09-01T21:16:08.821Z,98725.44
2022-09-01T21:19:10.498Z,98725.03
2022-09-01T21:21:55.983Z,98729.72
2022-09-01T21:24:22.734Z,98668.84
2022-09-01T21:26:49.820Z,98654.75
2022-09-01T21:29:19.828Z,98724.41
2022-09-01T21:31:47.671Z,98687.84
2022-09-01T21:34:16.963Z,98694.38
2022-09-01T21:36:43.762Z,98708.47
2022-09-01T21:39:10.502Z,98654.75
2022-09-01T21:41:39.137Z,98652.09
2022-09-01T21:44:06.407Z,98656.97
2022-09-01T21:46:33.246Z,98655.28
2022-09-01T21:49:01.288Z,98690.25
2022-09-01T21:51:28.774Z,98666.31
2022-09-01T21:53:55.536Z,98673.13
2022-09-01T21:56:25.752Z,98694.16
2022-09-01T21:58:53.720Z,98639.84
2022-09-01T22:02:07.154Z,98715.63
2022-09-01T22:04:38.387Z,98675.38
2022-09-01T22:07:06.500Z,98609.13
2022-09-01T22:09:34.260Z,98631.38
2022-09-01T22:12:01.176Z,98681.47
2022-09-01T22:14:27.854Z,98663.00
2022-09-01T22:17:20.005Z,98663.00
2022-09-01T22:19:46.884Z,98695.31
2022-09-01T22:22:13.463Z,98616.44
2022-09-01T22:24:40.053Z,98675.66
2022-09-01T22:27:06.625Z,98652.59
2022-09-01T22:29:33.246Z,98655.81
2022-09-01T22:31:59.759Z,98652.78
2022-09-01T22:34:26.522Z,98710.41
2022-09-01T22:36:53.072Z,98628.22
2022-09-01T22:39:19.966Z,98673.78
2022-09-01T22:41:52.600Z,98695.06
2022-09-01T22:44:19.111Z,98641.66
2022-09-01T22:46:45.951Z,98687.47
2022-09-01T22:49:12.628Z,98636.53
2022-09-01T22:51:42.466Z,98674.38
2022-09-01T22:54:10.111Z,98693.19
2022-09-01T22:56:39.418Z,98693.19
2022-09-01T22:59:10.055Z,98689.44
2022-09-01T23:01:43.938Z,98692.91
2022-09-01T23:04:12.717Z,98654.63
2022-09-01T23:06:43.199Z,98694.31
2022-09-01T23:09:10.317Z,98645.25
2022-09-01T23:11:37.148Z,98640.69
2022-09-01T23:14:04.765Z,98655.41
2022-09-01T23:16:31.723Z,98681.53
2022-09-01T23:18:58.856Z,98621.00
2022-09-01T23:21:33.140Z,98688.53
2022-09-01T23:24:00.321Z,98675.84
2022-09-01T23:26:28.464Z,98608.16
2022-09-01T23:28:55.941Z,98689.34
2022-09-01T23:31:27.222Z,98680.31
2022-09-01T23:33:54.438Z,98680.69
2022-09-01T23:36:25.253Z,98674.31
2022-09-01T23:38:52.381Z,98643.44
2022-09-01T23:41:30.779Z,98682.00
2022-09-01T23:43:59.448Z,98630.47
2022-09-01T23:46:28.254Z,98639.09
2022-09-01T23:48:55.849Z,98629.53
2022-09-01T23:51:24.020Z,98663.31
2022-09-01T23:53:51.078Z,98638.31
2022-09-01T23:56:24.196Z,98657.59
2022-09-01T23:58:51.337Z,98627.91
